Providence Village's Hourly Summary for Saturday, July 7, 2018
Hour Temp
(f)
RH
(%)
Solar Rad.
(MJ/m2)
Rainfall
(in)
Wind
(mph)
7/7/2018 12:00 AM 75 79 0 0 1.9
7/7/2018 1:00 AM 75 81 0 0 2.09
7/7/2018 2:00 AM 75 84 0 0 2.56
7/7/2018 3:00 AM 74 85 0 0 1.65
7/7/2018 4:00 AM 73 88 0 0 2.19
7/7/2018 5:00 AM 72 91 0 0 1.17
7/7/2018 6:00 AM 71 92 0 0 2.44
7/7/2018 7:00 AM 71 93 0.03 0 1.71
7/7/2018 8:00 AM 73 80 0.36 0 4.02
7/7/2018 9:00 AM 78 68 0.99 0 4.43
7/7/2018 10:00 AM 81 63 0.73 0 5.69
7/7/2018 11:00 AM 85 57 2.26 0 5.75
7/7/2018 12:00 PM 87 55 2.49 0 5.36
7/7/2018 1:00 PM 89 48 2.99 0 6.05
7/7/2018 2:00 PM 91 41 2.81 0 6.36
7/7/2018 3:00 PM 92 39 2.46 0 6.17
7/7/2018 4:00 PM 93 38 2.24 0 8.08
7/7/2018 5:00 PM 93 37 1.95 0 7.61
7/7/2018 6:00 PM 93 35 1.59 0 7.67
7/7/2018 7:00 PM 92 38 1.22 0 9.38
7/7/2018 8:00 PM 90 44 0.66 0 9.81
7/7/2018 9:00 PM 88 48 0.06 0 7.72
7/7/2018 10:00 PM 86 54 0 0 6.22
7/7/2018 11:00 PM 84 59 0 0 6.05
Data Summary 82 62 22.84 0.00 5.09